sensor_id;sensor_type;location;lat;lon;timestamp;P1;durP1;ratioP1;P2;durP2;ratioP2
58196;SDS011;43999;51.660;5.616;2023-06-24T00:01:51;17.90;;;16.40;;
58196;SDS011;43999;51.660;5.616;2023-06-24T00:04:19;14.70;;;13.30;;
58196;SDS011;43999;51.660;5.616;2023-06-24T00:06:47;17.27;;;15.68;;
58196;SDS011;43999;51.660;5.616;2023-06-24T00:09:14;16.42;;;14.77;;
58196;SDS011;43999;51.660;5.616;2023-06-24T00:11:41;19.92;;;16.65;;
58196;SDS011;43999;51.660;5.616;2023-06-24T00:14:09;16.55;;;15.10;;
58196;SDS011;43999;51.660;5.616;2023-06-24T00:16:37;18.98;;;17.23;;
58196;SDS011;43999;51.660;5.616;2023-06-24T00:19:05;16.63;;;14.95;;
58196;SDS011;43999;51.660;5.616;2023-06-24T00:21:34;16.92;;;15.38;;
58196;SDS011;43999;51.660;5.616;2023-06-24T00:24:03;15.38;;;13.82;;
58196;SDS011;43999;51.660;5.616;2023-06-24T00:26:31;19.73;;;18.00;;
58196;SDS011;43999;51.660;5.616;2023-06-24T00:29:00;18.33;;;16.38;;
58196;SDS011;43999;51.660;5.616;2023-06-24T00:31:28;19.38;;;17.58;;
58196;SDS011;43999;51.660;5.616;2023-06-24T00:33:56;20.60;;;18.63;;
58196;SDS011;43999;51.660;5.616;2023-06-24T00:36:24;25.25;;;22.75;;
58196;SDS011;43999;51.660;5.616;2023-06-24T00:38:53;23.75;;;21.38;;
58196;SDS011;43999;51.660;5.616;2023-06-24T00:41:23;25.52;;;22.92;;
58196;SDS011;43999;51.660;5.616;2023-06-24T00:43:52;28.80;;;26.38;;
58196;SDS011;43999;51.660;5.616;2023-06-24T00:46:19;24.10;;;21.85;;
58196;SDS011;43999;51.660;5.616;2023-06-24T00:48:47;28.75;;;26.17;;
58196;SDS011;43999;51.660;5.616;2023-06-24T00:51:14;27.33;;;24.92;;
58196;SDS011;43999;51.660;5.616;2023-06-24T00:53:41;28.83;;;26.02;;
58196;SDS011;43999;51.660;5.616;2023-06-24T00:56:09;26.30;;;23.92;;
58196;SDS011;43999;51.660;5.616;2023-06-24T00:58:40;26.02;;;23.63;;
58196;SDS011;43999;51.660;5.616;2023-06-24T01:01:08;28.33;;;25.77;;
58196;SDS011;43999;51.660;5.616;2023-06-24T01:03:36;29.02;;;26.52;;
58196;SDS011;43999;51.660;5.616;2023-06-24T01:06:05;26.88;;;24.48;;
58196;SDS011;43999;51.660;5.616;2023-06-24T01:08:33;28.48;;;26.08;;
58196;SDS011;43999;51.660;5.616;2023-06-24T01:11:01;26.83;;;24.27;;
58196;SDS011;43999;51.660;5.616;2023-06-24T01:13:28;29.20;;;26.70;;
58196;SDS011;43999;51.660;5.616;2023-06-24T01:15:56;25.52;;;23.33;;
58196;SDS011;43999;51.660;5.616;2023-06-24T01:18:46;21.83;;;19.95;;
58196;SDS011;43999;51.660;5.616;2023-06-24T01:27:49;27.15;;;24.75;;
58196;SDS011;43999;51.660;5.616;2023-06-24T01:33:21;23.42;;;21.30;;
58196;SDS011;43999;51.660;5.616;2023-06-24T01:36:03;27.92;;;25.40;;
58196;SDS011;43999;51.660;5.616;2023-06-24T01:38:56;25.92;;;23.65;;
58196;SDS011;43999;51.660;5.616;2023-06-24T01:41:31;27.30;;;24.70;;
58196;SDS011;43999;51.660;5.616;2023-06-24T01:44:09;23.33;;;21.02;;
58196;SDS011;43999;51.660;5.616;2023-06-24T01:46:42;21.75;;;19.83;;
58196;SDS011;43999;51.660;5.616;2023-06-24T01:49:15;22.88;;;20.58;;
58196;SDS011;43999;51.660;5.616;2023-06-24T01:51:48;21.70;;;19.80;;
58196;SDS011;43999;51.660;5.616;2023-06-24T01:54:17;22.52;;;20.27;;
58196;SDS011;43999;51.660;5.616;2023-06-24T01:56:49;17.63;;;16.00;;
58196;SDS011;43999;51.660;5.616;2023-06-24T01:59:21;17.30;;;15.70;;
58196;SDS011;43999;51.660;5.616;2023-06-24T02:01:49;18.98;;;17.10;;
58196;SDS011;43999;51.660;5.616;2023-06-24T02:04:19;20.85;;;18.92;;
58196;SDS011;43999;51.660;5.616;2023-06-24T02:06:50;15.50;;;14.10;;
58196;SDS011;43999;51.660;5.616;2023-06-24T02:09:20;21.80;;;19.90;;
58196;SDS011;43999;51.660;5.616;2023-06-24T02:11:50;18.65;;;16.77;;
58196;SDS011;43999;51.660;5.616;2023-06-24T02:14:19;15.52;;;14.13;;
58196;SDS011;43999;51.660;5.616;2023-06-24T02:16:47;18.40;;;16.63;;
58196;SDS011;43999;51.660;5.616;2023-06-24T02:19:27;16.35;;;14.95;;
58196;SDS011;43999;51.660;5.616;2023-06-24T02:21:57;14.70;;;13.40;;
58196;SDS011;43999;51.660;5.616;2023-06-24T02:24:27;15.57;;;14.18;;
58196;SDS011;43999;51.660;5.616;2023-06-24T02:26:56;17.90;;;15.95;;
58196;SDS011;43999;51.660;5.616;2023-06-24T02:29:26;15.85;;;14.35;;
58196;SDS011;43999;51.660;5.616;2023-06-24T02:31:55;15.13;;;13.52;;
58196;SDS011;43999;51.660;5.616;2023-06-24T02:34:24;13.73;;;12.43;;
58196;SDS011;43999;51.660;5.616;2023-06-24T02:36:52;14.68;;;13.23;;
58196;SDS011;43999;51.660;5.616;2023-06-24T02:39:19;16.17;;;12.23;;
58196;SDS011;43999;51.660;5.616;2023-06-24T02:41:46;15.15;;;13.55;;
58196;SDS011;43999;51.660;5.616;2023-06-24T02:44:16;15.55;;;13.95;;
58196;SDS011;43999;51.660;5.616;2023-06-24T02:46:43;19.23;;;17.27;;
58196;SDS011;43999;51.660;5.616;2023-06-24T02:49:15;22.30;;;20.45;;
58196;SDS011;43999;51.660;5.616;2023-06-24T02:51:44;22.65;;;20.52;;
58196;SDS011;43999;51.660;5.616;2023-06-24T02:54:12;20.10;;;18.27;;
58196;SDS011;43999;51.660;5.616;2023-06-24T02:57:07;17.48;;;15.85;;
58196;SDS011;43999;51.660;5.616;2023-06-24T02:59:58;18.10;;;16.27;;
58196;SDS011;43999;51.660;5.616;2023-06-24T03:02:37;20.83;;;18.73;;
58196;SDS011;43999;51.660;5.616;2023-06-24T03:05:06;19.23;;;17.50;;
58196;SDS011;43999;51.660;5.616;2023-06-24T03:07:34;19.35;;;17.65;;
58196;SDS011;43999;51.660;5.616;2023-06-24T03:10:04;19.30;;;17.60;;
58196;SDS011;43999;51.660;5.616;2023-06-24T03:12:33;21.35;;;19.45;;
58196;SDS011;43999;51.660;5.616;2023-06-24T03:15:00;24.88;;;22.58;;
58196;SDS011;43999;51.660;5.616;2023-06-24T03:17:29;22.38;;;20.40;;
58196;SDS011;43999;51.660;5.616;2023-06-24T03:19:57;24.50;;;22.23;;
58196;SDS011;43999;51.660;5.616;2023-06-24T03:22:24;24.00;;;21.90;;
58196;SDS011;43999;51.660;5.616;2023-06-24T03:24:52;24.90;;;22.63;;
58196;SDS011;43999;51.660;5.616;2023-06-24T03:27:20;23.10;;;20.50;;
58196;SDS011;43999;51.660;5.616;2023-06-24T03:29:47;23.02;;;21.02;;
58196;SDS011;43999;51.660;5.616;2023-06-24T03:32:16;21.88;;;19.83;;
58196;SDS011;43999;51.660;5.616;2023-06-24T03:34:43;20.63;;;18.58;;
58196;SDS011;43999;51.660;5.616;2023-06-24T03:37:11;19.27;;;17.23;;
58196;SDS011;43999;51.660;5.616;2023-06-24T03:39:40;22.05;;;20.00;;
58196;SDS011;43999;51.660;5.616;2023-06-24T03:42:08;20.70;;;19.00;;
58196;SDS011;43999;51.660;5.616;2023-06-24T03:44:35;19.45;;;17.52;;
58196;SDS011;43999;51.660;5.616;2023-06-24T03:47:03;21.73;;;19.63;;
58196;SDS011;43999;51.660;5.616;2023-06-24T03:49:30;18.23;;;16.52;;
58196;SDS011;43999;51.660;5.616;2023-06-24T03:51:59;20.20;;;18.17;;
58196;SDS011;43999;51.660;5.616;2023-06-24T03:54:26;21.65;;;19.65;;
58196;SDS011;43999;51.660;5.616;2023-06-24T03:56:54;18.52;;;16.77;;
58196;SDS011;43999;51.660;5.616;2023-06-24T03:59:21;18.60;;;16.88;;
58196;SDS011;43999;51.660;5.616;2023-06-24T04:01:51;19.58;;;17.40;;
58196;SDS011;43999;51.660;5.616;2023-06-24T04:04:19;18.35;;;16.05;;
58196;SDS011;43999;51.660;5.616;2023-06-24T04:06:47;18.77;;;16.83;;
58196;SDS011;43999;51.660;5.616;2023-06-24T04:09:14;17.27;;;15.52;;
58196;SDS011;43999;51.660;5.616;2023-06-24T04:11:43;18.80;;;16.67;;
58196;SDS011;43999;51.660;5.616;2023-06-24T04:14:10;16.67;;;14.75;;
58196;SDS011;43999;51.660;5.616;2023-06-24T04:16:38;17.25;;;15.35;;
58196;SDS011;43999;51.660;5.616;2023-06-24T04:19:06;16.92;;;15.05;;
58196;SDS011;43999;51.660;5.616;2023-06-24T04:21:33;18.15;;;16.45;;
58196;SDS011;43999;51.660;5.616;2023-06-24T04:24:01;17.63;;;15.85;;
58196;SDS011;43999;51.660;5.616;2023-06-24T04:26:28;18.02;;;16.17;;
58196;SDS011;43999;51.660;5.616;2023-06-24T04:28:57;15.13;;;13.68;;
58196;SDS011;43999;51.660;5.616;2023-06-24T04:31:24;17.55;;;15.95;;
58196;SDS011;43999;51.660;5.616;2023-06-24T04:33:52;17.83;;;16.23;;
58196;SDS011;43999;51.660;5.616;2023-06-24T04:36:20;19.38;;;17.60;;
58196;SDS011;43999;51.660;5.616;2023-06-24T04:38:47;15.93;;;14.30;;
58196;SDS011;43999;51.660;5.616;2023-06-24T04:41:15;15.55;;;14.05;;
58196;SDS011;43999;51.660;5.616;2023-06-24T04:43:44;16.83;;;14.02;;
58196;SDS011;43999;51.660;5.616;2023-06-24T04:46:12;14.35;;;13.05;;
58196;SDS011;43999;51.660;5.616;2023-06-24T04:48:39;16.23;;;14.73;;
58196;SDS011;43999;51.660;5.616;2023-06-24T04:51:06;16.05;;;14.60;;
58196;SDS011;43999;51.660;5.616;2023-06-24T04:53:34;15.75;;;14.10;;
58196;SDS011;43999;51.660;5.616;2023-06-24T04:56:01;16.02;;;14.57;;
58196;SDS011;43999;51.660;5.616;2023-06-24T04:58:29;16.15;;;14.45;;
58196;SDS011;43999;51.660;5.616;2023-06-24T05:00:56;14.90;;;13.02;;
58196;SDS011;43999;51.660;5.616;2023-06-24T05:03:24;16.25;;;14.75;;
58196;SDS011;43999;51.660;5.616;2023-06-24T05:05:51;16.95;;;15.18;;
58196;SDS011;43999;51.660;5.616;2023-06-24T05:08:18;19.05;;;17.23;;
58196;SDS011;43999;51.660;5.616;2023-06-24T05:10:46;18.13;;;16.45;;
58196;SDS011;43999;51.660;5.616;2023-06-24T05:13:13;18.00;;;16.30;;
58196;SDS011;43999;51.660;5.616;2023-06-24T05:15:40;15.80;;;14.27;;
58196;SDS011;43999;51.660;5.616;2023-06-24T05:18:07;15.63;;;13.43;;
58196;SDS011;43999;51.660;5.616;2023-06-24T05:20:35;13.70;;;12.40;;
58196;SDS011;43999;51.660;5.616;2023-06-24T05:23:02;15.57;;;14.05;;
58196;SDS011;43999;51.660;5.616;2023-06-24T05:25:29;16.58;;;15.07;;
58196;SDS011;43999;51.660;5.616;2023-06-24T05:27:57;15.50;;;14.18;;
58196;SDS011;43999;51.660;5.616;2023-06-24T05:30:24;14.77;;;13.48;;
58196;SDS011;43999;51.660;5.616;2023-06-24T05:32:51;15.63;;;14.15;;
58196;SDS011;43999;51.660;5.616;2023-06-24T05:35:18;18.60;;;16.83;;
58196;SDS011;43999;51.660;5.616;2023-06-24T05:37:46;18.05;;;16.33;;
58196;SDS011;43999;51.660;5.616;2023-06-24T05:40:13;16.48;;;14.85;;
58196;SDS011;43999;51.660;5.616;2023-06-24T05:42:41;16.25;;;14.65;;
58196;SDS011;43999;51.660;5.616;2023-06-24T05:45:08;17.10;;;15.30;;
58196;SDS011;43999;51.660;5.616;2023-06-24T05:47:37;17.90;;;16.05;;
58196;SDS011;43999;51.660;5.616;2023-06-24T05:50:05;22.02;;;17.20;;
58196;SDS011;43999;51.660;5.616;2023-06-24T05:52:33;19.50;;;16.40;;
58196;SDS011;43999;51.660;5.616;2023-06-24T05:55:00;19.88;;;17.77;;
58196;SDS011;43999;51.660;5.616;2023-06-24T05:57:28;21.08;;;18.88;;
58196;SDS011;43999;51.660;5.616;2023-06-24T05:59:55;21.60;;;19.00;;
58196;SDS011;43999;51.660;5.616;2023-06-24T06:02:22;19.70;;;17.98;;
58196;SDS011;43999;51.660;5.616;2023-06-24T06:04:50;24.55;;;22.25;;
58196;SDS011;43999;51.660;5.616;2023-06-24T06:07:17;24.17;;;16.80;;
58196;SDS011;43999;51.660;5.616;2023-06-24T06:09:45;20.52;;;18.55;;
58196;SDS011;43999;51.660;5.616;2023-06-24T06:12:12;19.90;;;18.00;;
58196;SDS011;43999;51.660;5.616;2023-06-24T06:14:39;19.00;;;17.10;;
58196;SDS011;43999;51.660;5.616;2023-06-24T06:17:07;20.13;;;18.02;;
58196;SDS011;43999;51.660;5.616;2023-06-24T06:19:34;20.65;;;17.92;;
58196;SDS011;43999;51.660;5.616;2023-06-24T06:22:01;19.65;;;17.60;;
58196;SDS011;43999;51.660;5.616;2023-06-24T06:24:29;18.95;;;17.13;;
58196;SDS011;43999;51.660;5.616;2023-06-24T06:26:57;19.63;;;17.63;;
58196;SDS011;43999;51.660;5.616;2023-06-24T06:29:25;17.10;;;15.40;;
58196;SDS011;43999;51.660;5.616;2023-06-24T06:31:52;16.60;;;14.85;;
58196;SDS011;43999;51.660;5.616;2023-06-24T06:34:22;17.77;;;15.82;;
58196;SDS011;43999;51.660;5.616;2023-06-24T06:36:49;19.92;;;17.92;;
58196;SDS011;43999;51.660;5.616;2023-06-24T06:39:17;21.00;;;17.75;;
58196;SDS011;43999;51.660;5.616;2023-06-24T06:41:44;20.38;;;17.42;;
58196;SDS011;43999;51.660;5.616;2023-06-24T06:44:15;18.98;;;17.13;;
58196;SDS011;43999;51.660;5.616;2023-06-24T06:46:42;18.67;;;16.77;;
58196;SDS011;43999;51.660;5.616;2023-06-24T06:49:09;16.27;;;14.57;;
58196;SDS011;43999;51.660;5.616;2023-06-24T06:51:37;17.10;;;15.60;;
58196;SDS011;43999;51.660;5.616;2023-06-24T06:54:04;15.90;;;14.25;;
58196;SDS011;43999;51.660;5.616;2023-06-24T06:56:31;16.52;;;14.85;;
58196;SDS011;43999;51.660;5.616;2023-06-24T06:58:59;17.73;;;15.18;;
58196;SDS011;43999;51.660;5.616;2023-06-24T07:01:26;17.48;;;15.82;;
58196;SDS011;43999;51.660;5.616;2023-06-24T07:03:53;17.02;;;15.32;;
58196;SDS011;43999;51.660;5.616;2023-06-24T07:06:21;15.63;;;14.18;;
58196;SDS011;43999;51.660;5.616;2023-06-24T07:08:48;16.90;;;15.30;;
58196;SDS011;43999;51.660;5.616;2023-06-24T07:11:16;17.35;;;15.55;;
58196;SDS011;43999;51.660;5.616;2023-06-24T07:13:43;17.10;;;14.43;;
58196;SDS011;43999;51.660;5.616;2023-06-24T07:16:12;15.45;;;13.90;;
58196;SDS011;43999;51.660;5.616;2023-06-24T07:18:40;18.70;;;16.10;;
58196;SDS011;43999;51.660;5.616;2023-06-24T07:21:07;15.75;;;14.18;;
58196;SDS011;43999;51.660;5.616;2023-06-24T07:23:34;16.65;;;14.95;;
58196;SDS011;43999;51.660;5.616;2023-06-24T07:26:01;14.85;;;13.32;;
58196;SDS011;43999;51.660;5.616;2023-06-24T07:28:29;14.73;;;13.05;;
58196;SDS011;43999;51.660;5.616;2023-06-24T07:30:57;12.25;;;11.15;;
58196;SDS011;43999;51.660;5.616;2023-06-24T07:33:24;13.63;;;12.32;;
58196;SDS011;43999;51.660;5.616;2023-06-24T07:35:52;14.60;;;12.93;;
58196;SDS011;43999;51.660;5.616;2023-06-24T07:38:19;13.77;;;12.38;;
58196;SDS011;43999;51.660;5.616;2023-06-24T07:40:46;14.85;;;13.45;;
58196;SDS011;43999;51.660;5.616;2023-06-24T07:43:14;14.38;;;13.07;;
58196;SDS011;43999;51.660;5.616;2023-06-24T07:45:41;15.38;;;13.68;;
58196;SDS011;43999;51.660;5.616;2023-06-24T07:48:09;19.75;;;11.95;;
58196;SDS011;43999;51.660;5.616;2023-06-24T07:50:38;12.88;;;11.55;;
58196;SDS011;43999;51.660;5.616;2023-06-24T07:53:06;12.43;;;11.32;;
58196;SDS011;43999;51.660;5.616;2023-06-24T07:55:33;12.35;;;10.85;;
58196;SDS011;43999;51.660;5.616;2023-06-24T07:58:01;11.10;;;9.77;;
58196;SDS011;43999;51.660;5.616;2023-06-24T08:00:29;12.63;;;11.52;;
58196;SDS011;43999;51.660;5.616;2023-06-24T08:02:59;12.15;;;10.68;;
58196;SDS011;43999;51.660;5.616;2023-06-24T08:05:27;14.30;;;12.95;;
58196;SDS011;43999;51.660;5.616;2023-06-24T08:07:54;12.30;;;11.20;;
58196;SDS011;43999;51.660;5.616;2023-06-24T08:10:22;15.05;;;13.23;;
58196;SDS011;43999;51.660;5.616;2023-06-24T08:12:49;14.63;;;13.15;;
58196;SDS011;43999;51.660;5.616;2023-06-24T08:15:16;13.63;;;12.35;;
58196;SDS011;43999;51.660;5.616;2023-06-24T08:17:44;13.75;;;12.35;;
58196;SDS011;43999;51.660;5.616;2023-06-24T08:20:17;11.73;;;10.45;;
58196;SDS011;43999;51.660;5.616;2023-06-24T08:22:47;11.63;;;10.50;;
58196;SDS011;43999;51.660;5.616;2023-06-24T08:25:15;10.93;;;8.82;;
58196;SDS011;43999;51.660;5.616;2023-06-24T08:27:42;9.10;;;8.07;;
58196;SDS011;43999;51.660;5.616;2023-06-24T08:30:16;8.40;;;7.63;;
58196;SDS011;43999;51.660;5.616;2023-06-24T08:32:43;9.80;;;8.75;;
58196;SDS011;43999;51.660;5.616;2023-06-24T08:35:11;9.10;;;8.20;;
58196;SDS011;43999;51.660;5.616;2023-06-24T08:37:39;9.60;;;8.68;;
58196;SDS011;43999;51.660;5.616;2023-06-24T08:40:07;7.75;;;7.05;;
58196;SDS011;43999;51.660;5.616;2023-06-24T08:42:35;9.88;;;8.93;;
58196;SDS011;43999;51.660;5.616;2023-06-24T08:45:03;9.73;;;8.15;;
58196;SDS011;43999;51.660;5.616;2023-06-24T08:47:31;8.23;;;7.43;;
58196;SDS011;43999;51.660;5.616;2023-06-24T08:50:21;7.97;;;7.28;;
58196;SDS011;43999;51.660;5.616;2023-06-24T08:52:53;8.10;;;6.85;;
58196;SDS011;43999;51.660;5.616;2023-06-24T08:55:22;8.35;;;7.47;;
58196;SDS011;43999;51.660;5.616;2023-06-24T08:57:57;8.07;;;6.53;;
58196;SDS011;43999;51.660;5.616;2023-06-24T09:00:25;6.60;;;6.00;;
58196;SDS011;43999;51.660;5.616;2023-06-24T09:02:53;6.82;;;6.10;;
58196;SDS011;43999;51.660;5.616;2023-06-24T09:05:22;5.63;;;4.88;;
58196;SDS011;43999;51.660;5.616;2023-06-24T09:07:49;5.07;;;4.57;;
58196;SDS011;43999;51.660;5.616;2023-06-24T09:10:29;5.60;;;4.72;;
58196;SDS011;43999;51.660;5.616;2023-06-24T09:13:02;6.63;;;5.07;;
58196;SDS011;43999;51.660;5.616;2023-06-24T09:15:33;5.38;;;4.85;;
58196;SDS011;43999;51.660;5.616;2023-06-24T09:18:03;4.28;;;3.88;;
58196;SDS011;43999;51.660;5.616;2023-06-24T09:20:32;5.25;;;4.03;;
58196;SDS011;43999;51.660;5.616;2023-06-24T09:23:06;4.93;;;4.50;;
58196;SDS011;43999;51.660;5.616;2023-06-24T09:25:33;5.25;;;4.75;;
58196;SDS011;43999;51.660;5.616;2023-06-24T09:28:01;5.32;;;4.30;;
58196;SDS011;43999;51.660;5.616;2023-06-24T09:30:30;5.07;;;4.20;;
58196;SDS011;43999;51.660;5.616;2023-06-24T09:32:58;4.85;;;4.13;;
58196;SDS011;43999;51.660;5.616;2023-06-24T09:35:25;6.45;;;4.88;;
58196;SDS011;43999;51.660;5.616;2023-06-24T09:37:54;4.95;;;4.53;;
58196;SDS011;43999;51.660;5.616;2023-06-24T09:40:25;5.20;;;3.80;;
58196;SDS011;43999;51.660;5.616;2023-06-24T09:42:56;5.40;;;4.90;;
58196;SDS011;43999;51.660;5.616;2023-06-24T09:45:27;4.65;;;4.22;;
58196;SDS011;43999;51.660;5.616;2023-06-24T09:47:57;4.47;;;4.07;;
58196;SDS011;43999;51.660;5.616;2023-06-24T09:50:24;4.72;;;3.72;;
58196;SDS011;43999;51.660;5.616;2023-06-24T09:52:52;6.10;;;4.25;;
58196;SDS011;43999;51.660;5.616;2023-06-24T09:55:21;4.78;;;3.90;;
58196;SDS011;43999;51.660;5.616;2023-06-24T09:57:50;5.63;;;4.22;;
58196;SDS011;43999;51.660;5.616;2023-06-24T10:00:20;4.65;;;4.15;;
58196;SDS011;43999;51.660;5.616;2023-06-24T10:02:48;7.20;;;3.90;;
58196;SDS011;43999;51.660;5.616;2023-06-24T10:05:22;4.63;;;3.45;;
58196;SDS011;43999;51.660;5.616;2023-06-24T10:07:49;4.53;;;3.72;;
58196;SDS011;43999;51.660;5.616;2023-06-24T10:10:17;4.55;;;3.75;;
58196;SDS011;43999;51.660;5.616;2023-06-24T10:12:44;4.10;;;3.55;;
58196;SDS011;43999;51.660;5.616;2023-06-24T10:15:12;4.32;;;3.92;;
58196;SDS011;43999;51.660;5.616;2023-06-24T10:17:41;4.45;;;3.72;;
58196;SDS011;43999;51.660;5.616;2023-06-24T10:20:09;5.47;;;3.70;;
58196;SDS011;43999;51.660;5.616;2023-06-24T10:22:37;4.22;;;3.83;;
58196;SDS011;43999;51.660;5.616;2023-06-24T10:25:07;3.67;;;3.28;;
58196;SDS011;43999;51.660;5.616;2023-06-24T10:27:40;5.32;;;4.18;;
58196;SDS011;43999;51.660;5.616;2023-06-24T10:30:18;5.20;;;3.75;;
58196;SDS011;43999;51.660;5.616;2023-06-24T10:32:52;4.07;;;3.67;;
58196;SDS011;43999;51.660;5.616;2023-06-24T10:35:27;5.00;;;3.45;;
58196;SDS011;43999;51.660;5.616;2023-06-24T10:37:59;4.28;;;3.88;;
58196;SDS011;43999;51.660;5.616;2023-06-24T10:40:37;5.10;;;4.60;;
58196;SDS011;43999;51.660;5.616;2023-06-24T10:45:54;4.68;;;4.28;;
58196;SDS011;43999;51.660;5.616;2023-06-24T10:48:25;4.90;;;4.40;;
58196;SDS011;43999;51.660;5.616;2023-06-24T10:50:53;5.72;;;5.07;;
58196;SDS011;43999;51.660;5.616;2023-06-24T10:53:21;7.60;;;4.38;;
58196;SDS011;43999;51.660;5.616;2023-06-24T10:55:49;5.85;;;5.18;;
58196;SDS011;43999;51.660;5.616;2023-06-24T10:58:17;4.95;;;4.45;;
58196;SDS011;43999;51.660;5.616;2023-06-24T11:00:44;6.03;;;5.30;;
58196;SDS011;43999;51.660;5.616;2023-06-24T11:03:14;5.93;;;4.95;;
58196;SDS011;43999;51.660;5.616;2023-06-24T11:05:48;4.90;;;4.40;;
58196;SDS011;43999;51.660;5.616;2023-06-24T11:08:16;5.60;;;5.00;;
58196;SDS011;43999;51.660;5.616;2023-06-24T11:10:47;6.10;;;5.35;;
58196;SDS011;43999;51.660;5.616;2023-06-24T11:13:15;5.65;;;5.07;;
58196;SDS011;43999;51.660;5.616;2023-06-24T11:15:47;7.88;;;5.47;;
58196;SDS011;43999;51.660;5.616;2023-06-24T11:18:15;7.15;;;5.57;;
58196;SDS011;43999;51.660;5.616;2023-06-24T11:20:43;6.15;;;4.90;;
58196;SDS011;43999;51.660;5.616;2023-06-24T11:23:10;6.53;;;5.78;;
58196;SDS011;43999;51.660;5.616;2023-06-24T11:25:39;6.00;;;5.50;;
58196;SDS011;43999;51.660;5.616;2023-06-24T11:28:17;7.57;;;5.15;;
58196;SDS011;43999;51.660;5.616;2023-06-24T11:30:48;5.53;;;5.03;;
58196;SDS011;43999;51.660;5.616;2023-06-24T11:33:28;5.60;;;4.63;;
58196;SDS011;43999;51.660;5.616;2023-06-24T11:35:55;6.72;;;5.00;;
58196;SDS011;43999;51.660;5.616;2023-06-24T11:38:23;5.60;;;4.85;;
58196;SDS011;43999;51.660;5.616;2023-06-24T11:40:53;5.85;;;5.32;;
58196;SDS011;43999;51.660;5.616;2023-06-24T11:43:25;6.68;;;5.97;;
58196;SDS011;43999;51.660;5.616;2023-06-24T11:45:52;6.38;;;5.53;;
58196;SDS011;43999;51.660;5.616;2023-06-24T11:48:20;6.63;;;5.85;;
58196;SDS011;43999;51.660;5.616;2023-06-24T11:50:52;11.90;;;5.55;;
58196;SDS011;43999;51.660;5.616;2023-06-24T11:53:30;6.43;;;5.70;;
58196;SDS011;43999;51.660;5.616;2023-06-24T11:56:12;5.88;;;5.20;;
58196;SDS011;43999;51.660;5.616;2023-06-24T11:58:39;6.97;;;5.47;;
58196;SDS011;43999;51.660;5.616;2023-06-24T12:01:09;5.93;;;5.32;;
58196;SDS011;43999;51.660;5.616;2023-06-24T12:03:36;5.10;;;4.60;;
58196;SDS011;43999;51.660;5.616;2023-06-24T12:06:04;6.18;;;5.68;;
58196;SDS011;43999;51.660;5.616;2023-06-24T12:08:31;5.38;;;4.88;;
58196;SDS011;43999;51.660;5.616;2023-06-24T12:11:17;6.63;;;5.70;;
58196;SDS011;43999;51.660;5.616;2023-06-24T12:13:45;5.88;;;5.28;;
58196;SDS011;43999;51.660;5.616;2023-06-24T12:16:14;6.63;;;6.03;;
58196;SDS011;43999;51.660;5.616;2023-06-24T12:18:41;7.45;;;6.28;;
58196;SDS011;43999;51.660;5.616;2023-06-24T12:21:09;5.97;;;5.38;;
58196;SDS011;43999;51.660;5.616;2023-06-24T12:23:37;6.10;;;5.35;;
58196;SDS011;43999;51.660;5.616;2023-06-24T12:26:05;6.53;;;5.93;;
58196;SDS011;43999;51.660;5.616;2023-06-24T12:28:32;6.15;;;5.55;;
58196;SDS011;43999;51.660;5.616;2023-06-24T12:31:00;8.23;;;5.97;;
58196;SDS011;43999;51.660;5.616;2023-06-24T12:33:27;7.22;;;6.53;;
58196;SDS011;43999;51.660;5.616;2023-06-24T12:35:55;7.32;;;6.60;;
58196;SDS011;43999;51.660;5.616;2023-06-24T12:38:22;6.88;;;5.97;;
58196;SDS011;43999;51.660;5.616;2023-06-24T12:40:50;6.57;;;5.70;;
58196;SDS011;43999;51.660;5.616;2023-06-24T12:43:18;6.00;;;5.47;;
58196;SDS011;43999;51.660;5.616;2023-06-24T12:45:46;6.45;;;5.85;;
58196;SDS011;43999;51.660;5.616;2023-06-24T12:48:13;6.32;;;5.72;;
58196;SDS011;43999;51.660;5.616;2023-06-24T12:50:41;6.38;;;5.78;;
58196;SDS011;43999;51.660;5.616;2023-06-24T12:53:09;5.63;;;5.13;;
58196;SDS011;43999;51.660;5.616;2023-06-24T12:55:37;5.78;;;4.88;;
58196;SDS011;43999;51.660;5.616;2023-06-24T12:58:04;6.10;;;5.47;;
58196;SDS011;43999;51.660;5.616;2023-06-24T13:00:32;7.22;;;5.43;;
58196;SDS011;43999;51.660;5.616;2023-06-24T13:03:00;7.63;;;6.45;;
58196;SDS011;43999;51.660;5.616;2023-06-24T13:05:27;6.88;;;6.18;;
58196;SDS011;43999;51.660;5.616;2023-06-24T13:07:54;7.03;;;6.18;;
58196;SDS011;43999;51.660;5.616;2023-06-24T13:10:22;7.00;;;6.35;;
58196;SDS011;43999;51.660;5.616;2023-06-24T13:12:49;6.55;;;5.95;;
58196;SDS011;43999;51.660;5.616;2023-06-24T13:15:18;7.07;;;5.38;;
58196;SDS011;43999;51.660;5.616;2023-06-24T13:17:45;6.68;;;5.88;;
58196;SDS011;43999;51.660;5.616;2023-06-24T13:20:12;7.22;;;5.72;;
58196;SDS011;43999;51.660;5.616;2023-06-24T13:22:40;6.57;;;5.97;;
58196;SDS011;43999;51.660;5.616;2023-06-24T13:25:08;6.20;;;5.50;;
58196;SDS011;43999;51.660;5.616;2023-06-24T13:27:36;6.78;;;6.10;;
58196;SDS011;43999;51.660;5.616;2023-06-24T13:30:06;5.85;;;5.00;;
58196;SDS011;43999;51.660;5.616;2023-06-24T13:32:35;7.00;;;5.03;;
58196;SDS011;43999;51.660;5.616;2023-06-24T13:35:04;4.72;;;4.20;;
58196;SDS011;43999;51.660;5.616;2023-06-24T13:37:32;7.32;;;4.50;;
58196;SDS011;43999;51.660;5.616;2023-06-24T13:39:59;7.93;;;6.38;;
58196;SDS011;43999;51.660;5.616;2023-06-24T13:42:27;5.40;;;4.90;;
58196;SDS011;43999;51.660;5.616;2023-06-24T13:44:55;7.38;;;6.05;;
58196;SDS011;43999;51.660;5.616;2023-06-24T13:47:22;5.35;;;4.85;;
58196;SDS011;43999;51.660;5.616;2023-06-24T13:49:50;6.32;;;5.75;;
58196;SDS011;43999;51.660;5.616;2023-06-24T13:52:17;6.60;;;5.75;;
58196;SDS011;43999;51.660;5.616;2023-06-24T13:54:44;5.60;;;5.03;;
58196;SDS011;43999;51.660;5.616;2023-06-24T13:57:13;6.07;;;5.28;;
58196;SDS011;43999;51.660;5.616;2023-06-24T13:59:42;5.53;;;4.85;;
58196;SDS011;43999;51.660;5.616;2023-06-24T14:02:09;6.32;;;5.72;;
58196;SDS011;43999;51.660;5.616;2023-06-24T14:04:38;7.38;;;4.90;;
58196;SDS011;43999;51.660;5.616;2023-06-24T14:07:06;6.22;;;5.10;;
58196;SDS011;43999;51.660;5.616;2023-06-24T14:09:34;4.97;;;4.47;;
58196;SDS011;43999;51.660;5.616;2023-06-24T14:12:06;4.47;;;3.90;;
58196;SDS011;43999;51.660;5.616;2023-06-24T14:14:35;5.30;;;4.80;;
58196;SDS011;43999;51.660;5.616;2023-06-24T14:17:05;7.43;;;4.90;;
58196;SDS011;43999;51.660;5.616;2023-06-24T14:19:38;6.35;;;5.85;;
58196;SDS011;43999;51.660;5.616;2023-06-24T14:22:07;4.55;;;4.15;;
58196;SDS011;43999;51.660;5.616;2023-06-24T14:24:35;5.00;;;4.60;;
58196;SDS011;43999;51.660;5.616;2023-06-24T14:27:05;5.38;;;4.88;;
58196;SDS011;43999;51.660;5.616;2023-06-24T14:29:33;6.53;;;5.93;;
58196;SDS011;43999;51.660;5.616;2023-06-24T14:32:01;5.60;;;5.10;;
58196;SDS011;43999;51.660;5.616;2023-06-24T14:34:28;5.65;;;5.13;;
58196;SDS011;43999;51.660;5.616;2023-06-24T14:36:56;6.07;;;5.47;;
58196;SDS011;43999;51.660;5.616;2023-06-24T14:39:26;5.68;;;5.18;;
58196;SDS011;43999;51.660;5.616;2023-06-24T14:41:56;5.72;;;5.22;;
58196;SDS011;43999;51.660;5.616;2023-06-24T14:44:23;6.05;;;5.45;;
58196;SDS011;43999;51.660;5.616;2023-06-24T14:46:51;6.85;;;5.90;;
58196;SDS011;43999;51.660;5.616;2023-06-24T14:49:18;6.72;;;6.03;;
58196;SDS011;43999;51.660;5.616;2023-06-24T14:51:45;6.10;;;5.50;;
58196;SDS011;43999;51.660;5.616;2023-06-24T14:54:13;6.25;;;5.75;;
58196;SDS011;43999;51.660;5.616;2023-06-24T14:56:40;6.05;;;5.50;;